sensor_id;sensor_type;location;lat;lon;timestamp;temperature;humidity
674;DHT22;319;48.764;9.174;2022-08-05T00:02:05;27.10;75.00
674;DHT22;319;48.764;9.174;2022-08-05T00:04:32;27.20;74.30
674;DHT22;319;48.764;9.174;2022-08-05T00:06:59;27.30;73.90
674;DHT22;319;48.764;9.174;2022-08-05T00:09:26;27.20;73.80
674;DHT22;319;48.764;9.174;2022-08-05T00:11:52;27.20;73.90
674;DHT22;319;48.764;9.174;2022-08-05T00:14:20;27.20;74.00
674;DHT22;319;48.764;9.174;2022-08-05T00:16:47;27.20;74.10
674;DHT22;319;48.764;9.174;2022-08-05T00:19:14;27.20;74.10
674;DHT22;319;48.764;9.174;2022-08-05T00:21:41;27.10;74.20
674;DHT22;319;48.764;9.174;2022-08-05T00:24:07;27.10;74.60
674;DHT22;319;48.764;9.174;2022-08-05T00:26:34;27.00;74.70
674;DHT22;319;48.764;9.174;2022-08-05T00:29:01;27.00;75.00
674;DHT22;319;48.764;9.174;2022-08-05T00:31:29;26.90;75.10
674;DHT22;319;48.764;9.174;2022-08-05T00:33:56;26.90;75.40
674;DHT22;319;48.764;9.174;2022-08-05T00:36:22;27.00;75.70
674;DHT22;319;48.764;9.174;2022-08-05T00:38:49;26.90;75.40
674;DHT22;319;48.764;9.174;2022-08-05T00:41:26;26.90;75.70
674;DHT22;319;48.764;9.174;2022-08-05T00:43:53;26.90;76.10
674;DHT22;319;48.764;9.174;2022-08-05T00:46:20;26.80;76.00
674;DHT22;319;48.764;9.174;2022-08-05T00:48:48;26.80;76.00
674;DHT22;319;48.764;9.174;2022-08-05T00:51:15;26.70;76.30
674;DHT22;319;48.764;9.174;2022-08-05T00:53:41;26.70;76.30
674;DHT22;319;48.764;9.174;2022-08-05T00:56:08;26.70;76.70
674;DHT22;319;48.764;9.174;2022-08-05T00:58:35;26.80;76.80
674;DHT22;319;48.764;9.174;2022-08-05T01:01:02;26.70;76.80
674;DHT22;319;48.764;9.174;2022-08-05T01:03:29;26.60;77.10
674;DHT22;319;48.764;9.174;2022-08-05T01:05:58;26.50;77.80
674;DHT22;319;48.764;9.174;2022-08-05T01:08:24;26.50;78.20
674;DHT22;319;48.764;9.174;2022-08-05T01:10:53;26.30;77.40
674;DHT22;319;48.764;9.174;2022-08-05T01:13:26;26.30;73.70
674;DHT22;319;48.764;9.174;2022-08-05T01:15:59;26.40;73.70
674;DHT22;319;48.764;9.174;2022-08-05T01:18:32;26.50;72.10
674;DHT22;319;48.764;9.174;2022-08-05T01:21:28;26.60;71.10
674;DHT22;319;48.764;9.174;2022-08-05T01:24:09;26.70;69.70
674;DHT22;319;48.764;9.174;2022-08-05T01:26:46;26.80;69.80
674;DHT22;319;48.764;9.174;2022-08-05T01:29:20;26.80;69.80
674;DHT22;319;48.764;9.174;2022-08-05T01:31:53;26.80;69.90
674;DHT22;319;48.764;9.174;2022-08-05T01:34:22;26.80;70.30
674;DHT22;319;48.764;9.174;2022-08-05T01:37:04;26.90;70.40
674;DHT22;319;48.764;9.174;2022-08-05T01:39:33;26.90;70.60
674;DHT22;319;48.764;9.174;2022-08-05T01:42:01;26.90;71.20
674;DHT22;319;48.764;9.174;2022-08-05T01:44:30;26.80;71.70
674;DHT22;319;48.764;9.174;2022-08-05T01:46:57;26.80;71.90
674;DHT22;319;48.764;9.174;2022-08-05T01:49:26;26.90;72.30
674;DHT22;319;48.764;9.174;2022-08-05T01:52:01;26.80;72.40
674;DHT22;319;48.764;9.174;2022-08-05T01:54:33;26.80;72.90
674;DHT22;319;48.764;9.174;2022-08-05T01:57:01;26.80;73.20
674;DHT22;319;48.764;9.174;2022-08-05T01:59:31;26.80;73.20
674;DHT22;319;48.764;9.174;2022-08-05T02:01:59;26.80;73.50
674;DHT22;319;48.764;9.174;2022-08-05T02:04:28;26.80;73.80
674;DHT22;319;48.764;9.174;2022-08-05T02:06:56;26.70;74.10
674;DHT22;319;48.764;9.174;2022-08-05T02:09:24;26.70;74.50
674;DHT22;319;48.764;9.174;2022-08-05T02:11:58;26.80;74.70
674;DHT22;319;48.764;9.174;2022-08-05T02:14:31;26.80;74.70
674;DHT22;319;48.764;9.174;2022-08-05T02:17:02;26.70;74.90
674;DHT22;319;48.764;9.174;2022-08-05T02:19:33;26.70;75.40
674;DHT22;319;48.764;9.174;2022-08-05T02:22:07;26.60;75.80
674;DHT22;319;48.764;9.174;2022-08-05T02:24:37;26.60;76.00
674;DHT22;319;48.764;9.174;2022-08-05T02:27:06;26.60;76.20
674;DHT22;319;48.764;9.174;2022-08-05T02:29:36;26.70;76.30
674;DHT22;319;48.764;9.174;2022-08-05T02:32:05;26.60;76.40
674;DHT22;319;48.764;9.174;2022-08-05T02:34:36;26.60;76.50
674;DHT22;319;48.764;9.174;2022-08-05T02:37:04;26.60;76.60
674;DHT22;319;48.764;9.174;2022-08-05T02:39:35;26.60;76.90
674;DHT22;319;48.764;9.174;2022-08-05T02:42:04;26.60;76.90
674;DHT22;319;48.764;9.174;2022-08-05T02:44:35;26.60;77.40
674;DHT22;319;48.764;9.174;2022-08-05T02:47:04;26.50;77.50
674;DHT22;319;48.764;9.174;2022-08-05T02:49:35;26.50;77.50
674;DHT22;319;48.764;9.174;2022-08-05T02:52:04;26.50;77.70
674;DHT22;319;48.764;9.174;2022-08-05T02:54:33;26.50;78.10
674;DHT22;319;48.764;9.174;2022-08-05T02:57:01;26.50;78.20
674;DHT22;319;48.764;9.174;2022-08-05T02:59:28;26.50;78.40
674;DHT22;319;48.764;9.174;2022-08-05T03:01:58;26.40;78.50
674;DHT22;319;48.764;9.174;2022-08-05T03:04:26;26.40;78.70
674;DHT22;319;48.764;9.174;2022-08-05T03:06:54;26.40;79.00
674;DHT22;319;48.764;9.174;2022-08-05T03:09:21;26.40;78.70
674;DHT22;319;48.764;9.174;2022-08-05T03:11:48;26.50;79.00
674;DHT22;319;48.764;9.174;2022-08-05T03:14:15;26.50;79.10
674;DHT22;319;48.764;9.174;2022-08-05T03:16:42;26.40;79.20
674;DHT22;319;48.764;9.174;2022-08-05T03:19:10;26.50;79.50
674;DHT22;319;48.764;9.174;2022-08-05T03:21:37;26.50;79.50
674;DHT22;319;48.764;9.174;2022-08-05T03:24:04;26.50;79.60
674;DHT22;319;48.764;9.174;2022-08-05T03:26:31;26.40;79.70
674;DHT22;319;48.764;9.174;2022-08-05T03:28:58;26.40;79.70
674;DHT22;319;48.764;9.174;2022-08-05T03:31:25;26.40;80.10
674;DHT22;319;48.764;9.174;2022-08-05T03:33:53;26.40;80.50
674;DHT22;319;48.764;9.174;2022-08-05T03:36:21;26.40;80.70
674;DHT22;319;48.764;9.174;2022-08-05T03:38:48;26.30;81.00
674;DHT22;319;48.764;9.174;2022-08-05T03:41:15;26.30;81.30
674;DHT22;319;48.764;9.174;2022-08-05T03:43:41;26.30;81.60
674;DHT22;319;48.764;9.174;2022-08-05T03:46:08;26.30;81.80
674;DHT22;319;48.764;9.174;2022-08-05T03:48:35;26.20;82.20
674;DHT22;319;48.764;9.174;2022-08-05T03:51:09;26.20;82.50
674;DHT22;319;48.764;9.174;2022-08-05T03:53:43;26.10;82.70
674;DHT22;319;48.764;9.174;2022-08-05T03:56:19;26.10;83.40
674;DHT22;319;48.764;9.174;2022-08-05T03:58:48;26.00;84.10
674;DHT22;319;48.764;9.174;2022-08-05T04:01:16;25.80;85.00
674;DHT22;319;48.764;9.174;2022-08-05T04:03:46;25.70;85.70
674;DHT22;319;48.764;9.174;2022-08-05T04:06:14;25.60;86.30
674;DHT22;319;48.764;9.174;2022-08-05T04:08:44;25.60;86.80
674;DHT22;319;48.764;9.174;2022-08-05T04:11:12;25.60;87.20
674;DHT22;319;48.764;9.174;2022-08-05T04:13:39;25.60;87.80
674;DHT22;319;48.764;9.174;2022-08-05T04:16:08;25.50;88.10
674;DHT22;319;48.764;9.174;2022-08-05T04:18:35;25.40;88.40
674;DHT22;319;48.764;9.174;2022-08-05T04:21:03;25.40;88.90
674;DHT22;319;48.764;9.174;2022-08-05T04:23:31;25.40;89.60
674;DHT22;319;48.764;9.174;2022-08-05T04:25:59;25.30;89.90
674;DHT22;319;48.764;9.174;2022-08-05T04:28:26;25.30;90.10
674;DHT22;319;48.764;9.174;2022-08-05T04:30:53;25.20;90.30
674;DHT22;319;48.764;9.174;2022-08-05T04:33:19;25.20;90.50
674;DHT22;319;48.764;9.174;2022-08-05T04:35:46;25.30;90.60
674;DHT22;319;48.764;9.174;2022-08-05T04:38:13;25.30;90.40
674;DHT22;319;48.764;9.174;2022-08-05T04:40:40;25.30;90.40
674;DHT22;319;48.764;9.174;2022-08-05T04:43:08;25.30;90.20
674;DHT22;319;48.764;9.174;2022-08-05T04:45:35;25.30;90.30
674;DHT22;319;48.764;9.174;2022-08-05T04:48:03;25.30;90.30
674;DHT22;319;48.764;9.174;2022-08-05T04:50:30;25.40;90.40
674;DHT22;319;48.764;9.174;2022-08-05T04:52:57;25.30;90.50
674;DHT22;319;48.764;9.174;2022-08-05T04:55:24;25.40;90.50
674;DHT22;319;48.764;9.174;2022-08-05T04:57:51;25.40;90.30
674;DHT22;319;48.764;9.174;2022-08-05T05:00:19;25.40;90.60
674;DHT22;319;48.764;9.174;2022-08-05T05:02:45;25.40;90.70
674;DHT22;319;48.764;9.174;2022-08-05T05:05:12;25.40;90.70
674;DHT22;319;48.764;9.174;2022-08-05T05:07:39;25.40;90.70
674;DHT22;319;48.764;9.174;2022-08-05T05:10:06;25.50;90.70
674;DHT22;319;48.764;9.174;2022-08-05T05:12:33;25.50;90.50
674;DHT22;319;48.764;9.174;2022-08-05T05:15:00;25.50;90.70
674;DHT22;319;48.764;9.174;2022-08-05T05:17:28;25.60;90.60
674;DHT22;319;48.764;9.174;2022-08-05T05:20:02;25.70;90.40
674;DHT22;319;48.764;9.174;2022-08-05T05:22:29;25.70;90.40
674;DHT22;319;48.764;9.174;2022-08-05T05:24:56;25.80;90.30
674;DHT22;319;48.764;9.174;2022-08-05T05:27:23;26.00;90.20
674;DHT22;319;48.764;9.174;2022-08-05T05:29:49;26.20;89.60
674;DHT22;319;48.764;9.174;2022-08-05T05:32:16;26.20;88.70
674;DHT22;319;48.764;9.174;2022-08-05T05:34:44;26.30;88.50
674;DHT22;319;48.764;9.174;2022-08-05T05:37:11;26.40;88.10
674;DHT22;319;48.764;9.174;2022-08-05T05:39:39;26.60;87.50
674;DHT22;319;48.764;9.174;2022-08-05T05:42:06;26.70;87.00
674;DHT22;319;48.764;9.174;2022-08-05T05:44:33;26.70;87.20
674;DHT22;319;48.764;9.174;2022-08-05T05:47:00;26.80;86.60
674;DHT22;319;48.764;9.174;2022-08-05T05:49:26;26.80;86.90
674;DHT22;319;48.764;9.174;2022-08-05T05:51:55;26.90;86.80
674;DHT22;319;48.764;9.174;2022-08-05T05:54:21;26.80;87.00
674;DHT22;319;48.764;9.174;2022-08-05T05:56:48;26.80;87.00
674;DHT22;319;48.764;9.174;2022-08-05T05:59:15;26.80;87.50
674;DHT22;319;48.764;9.174;2022-08-05T06:01:42;26.80;87.40
674;DHT22;319;48.764;9.174;2022-08-05T06:04:10;26.80;86.90
674;DHT22;319;48.764;9.174;2022-08-05T06:06:38;26.80;87.10
674;DHT22;319;48.764;9.174;2022-08-05T06:09:06;26.90;86.70
674;DHT22;319;48.764;9.174;2022-08-05T06:11:34;26.90;86.40
674;DHT22;319;48.764;9.174;2022-08-05T06:14:00;26.90;86.30
674;DHT22;319;48.764;9.174;2022-08-05T06:16:27;27.00;85.40
674;DHT22;319;48.764;9.174;2022-08-05T06:18:54;27.10;85.10
674;DHT22;319;48.764;9.174;2022-08-05T06:21:21;27.20;84.60
674;DHT22;319;48.764;9.174;2022-08-05T06:23:48;27.30;84.50
674;DHT22;319;48.764;9.174;2022-08-05T06:26:16;27.40;84.10
674;DHT22;319;48.764;9.174;2022-08-05T06:28:43;27.50;83.20
674;DHT22;319;48.764;9.174;2022-08-05T06:31:10;27.90;82.60
674;DHT22;319;48.764;9.174;2022-08-05T06:33:37;28.10;80.80
674;DHT22;319;48.764;9.174;2022-08-05T06:36:04;28.60;79.50
674;DHT22;319;48.764;9.174;2022-08-05T06:38:31;29.30;77.70
674;DHT22;319;48.764;9.174;2022-08-05T06:40:58;30.40;74.00
674;DHT22;319;48.764;9.174;2022-08-05T06:43:26;31.30;70.30
674;DHT22;319;48.764;9.174;2022-08-05T06:45:52;32.00;67.80
674;DHT22;319;48.764;9.174;2022-08-05T06:48:19;32.90;64.00
674;DHT22;319;48.764;9.174;2022-08-05T06:50:46;33.60;61.30
674;DHT22;319;48.764;9.174;2022-08-05T06:53:12;34.60;58.60
674;DHT22;319;48.764;9.174;2022-08-05T06:55:40;35.70;55.20
674;DHT22;319;48.764;9.174;2022-08-05T06:58:06;36.50;53.50
674;DHT22;319;48.764;9.174;2022-08-05T07:00:35;37.00;50.60
674;DHT22;319;48.764;9.174;2022-08-05T07:03:01;37.30;49.00
674;DHT22;319;48.764;9.174;2022-08-05T07:05:28;37.50;47.90
674;DHT22;319;48.764;9.174;2022-08-05T07:07:55;38.00;46.80
674;DHT22;319;48.764;9.174;2022-08-05T07:10:22;38.10;45.80
674;DHT22;319;48.764;9.174;2022-08-05T07:12:49;37.70;45.40
674;DHT22;319;48.764;9.174;2022-08-05T07:15:35;37.30;46.20
674;DHT22;319;48.764;9.174;2022-08-05T07:18:19;37.00;46.50
674;DHT22;319;48.764;9.174;2022-08-05T07:20:46;36.70;46.70
674;DHT22;319;48.764;9.174;2022-08-05T07:23:13;36.80;46.20
674;DHT22;319;48.764;9.174;2022-08-05T07:25:39;36.60;46.80
674;DHT22;319;48.764;9.174;2022-08-05T07:28:06;36.90;46.60
674;DHT22;319;48.764;9.174;2022-08-05T07:30:35;37.00;45.60
674;DHT22;319;48.764;9.174;2022-08-05T07:33:02;36.80;46.10
674;DHT22;319;48.764;9.174;2022-08-05T07:35:29;36.90;45.90
674;DHT22;319;48.764;9.174;2022-08-05T07:37:57;37.20;45.50
674;DHT22;319;48.764;9.174;2022-08-05T07:40:24;37.40;44.20
674;DHT22;319;48.764;9.174;2022-08-05T07:42:51;37.30;43.80
674;DHT22;319;48.764;9.174;2022-08-05T07:45:17;37.20;43.80
674;DHT22;319;48.764;9.174;2022-08-05T07:47:46;37.60;44.00
674;DHT22;319;48.764;9.174;2022-08-05T07:50:13;37.70;43.80
674;DHT22;319;48.764;9.174;2022-08-05T07:52:41;37.50;43.50
674;DHT22;319;48.764;9.174;2022-08-05T07:55:08;37.40;43.00
674;DHT22;319;48.764;9.174;2022-08-05T07:57:35;37.00;43.10
674;DHT22;319;48.764;9.174;2022-08-05T08:00:03;36.70;43.20
674;DHT22;319;48.764;9.174;2022-08-05T08:02:30;36.80;43.10
674;DHT22;319;48.764;9.174;2022-08-05T08:05:00;36.70;42.50
674;DHT22;319;48.764;9.174;2022-08-05T08:07:27;37.10;42.30
674;DHT22;319;48.764;9.174;2022-08-05T08:09:54;37.20;41.70
674;DHT22;319;48.764;9.174;2022-08-05T08:12:21;36.80;41.70
674;DHT22;319;48.764;9.174;2022-08-05T08:14:47;36.70;42.40
674;DHT22;319;48.764;9.174;2022-08-05T08:17:14;37.00;41.40
674;DHT22;319;48.764;9.174;2022-08-05T08:19:42;37.40;40.80
674;DHT22;319;48.764;9.174;2022-08-05T08:22:11;37.40;40.40
674;DHT22;319;48.764;9.174;2022-08-05T08:24:38;37.60;40.40
674;DHT22;319;48.764;9.174;2022-08-05T08:27:06;37.40;40.00
674;DHT22;319;48.764;9.174;2022-08-05T08:29:33;37.30;39.40
674;DHT22;319;48.764;9.174;2022-08-05T08:32:00;36.90;40.00
674;DHT22;319;48.764;9.174;2022-08-05T08:34:26;37.40;39.90
674;DHT22;319;48.764;9.174;2022-08-05T08:36:53;37.00;40.10
674;DHT22;319;48.764;9.174;2022-08-05T08:39:21;37.20;40.10
674;DHT22;319;48.764;9.174;2022-08-05T08:41:50;36.90;40.20
674;DHT22;319;48.764;9.174;2022-08-05T08:44:20;36.30;40.50
674;DHT22;319;48.764;9.174;2022-08-05T08:46:47;36.60;41.10
674;DHT22;319;48.764;9.174;2022-08-05T08:49:14;36.90;40.80
674;DHT22;319;48.764;9.174;2022-08-05T08:51:43;37.10;39.90
674;DHT22;319;48.764;9.174;2022-08-05T08:54:12;37.60;39.40
674;DHT22;319;48.764;9.174;2022-08-05T08:56:41;37.90;38.70
674;DHT22;319;48.764;9.174;2022-08-05T08:59:08;37.70;38.20
674;DHT22;319;48.764;9.174;2022-08-05T09:01:36;37.90;38.40
674;DHT22;319;48.764;9.174;2022-08-05T09:04:04;37.90;38.40
674;DHT22;319;48.764;9.174;2022-08-05T09:06:30;37.90;37.60
674;DHT22;319;48.764;9.174;2022-08-05T09:08:59;37.90;38.10
674;DHT22;319;48.764;9.174;2022-08-05T09:11:26;37.70;37.80
674;DHT22;319;48.764;9.174;2022-08-05T09:13:55;37.30;38.70
674;DHT22;319;48.764;9.174;2022-08-05T09:16:22;37.40;38.90
674;DHT22;319;48.764;9.174;2022-08-05T09:18:49;36.90;38.60
674;DHT22;319;48.764;9.174;2022-08-05T09:21:15;36.50;39.20
674;DHT22;319;48.764;9.174;2022-08-05T09:23:44;36.10;39.70
674;DHT22;319;48.764;9.174;2022-08-05T09:26:12;35.60;40.70
674;DHT22;319;48.764;9.174;2022-08-05T09:28:42;35.10;41.00
674;DHT22;319;48.764;9.174;2022-08-05T09:31:12;34.80;41.50
674;DHT22;319;48.764;9.174;2022-08-05T09:33:49;34.50;42.10
674;DHT22;319;48.764;9.174;2022-08-05T09:36:16;34.50;41.90
674;DHT22;319;48.764;9.174;2022-08-05T09:38:55;34.20;42.20
674;DHT22;319;48.764;9.174;2022-08-05T09:41:22;34.00;42.20
674;DHT22;319;48.764;9.174;2022-08-05T09:43:49;34.00;42.90
674;DHT22;319;48.764;9.174;2022-08-05T09:46:25;33.90;42.80
674;DHT22;319;48.764;9.174;2022-08-05T09:48:52;33.90;42.70
674;DHT22;319;48.764;9.174;2022-08-05T09:51:30;33.70;43.10
674;DHT22;319;48.764;9.174;2022-08-05T09:53:58;33.50;43.70
674;DHT22;319;48.764;9.174;2022-08-05T09:56:26;33.50;44.30
674;DHT22;319;48.764;9.174;2022-08-05T09:58:58;33.70;44.10
674;DHT22;319;48.764;9.174;2022-08-05T10:01:27;33.80;43.90
674;DHT22;319;48.764;9.174;2022-08-05T10:03:55;33.90;43.30
674;DHT22;319;48.764;9.174;2022-08-05T10:06:24;34.00;43.00
674;DHT22;319;48.764;9.174;2022-08-05T10:08:51;33.80;43.30
674;DHT22;319;48.764;9.174;2022-08-05T10:11:18;33.80;42.80
674;DHT22;319;48.764;9.174;2022-08-05T10:13:45;33.70;43.10
674;DHT22;319;48.764;9.174;2022-08-05T10:19:05;33.60;43.20
674;DHT22;319;48.764;9.174;2022-08-05T10:21:32;33.20;44.10
674;DHT22;319;48.764;9.174;2022-08-05T10:23:59;33.20;44.50
674;DHT22;319;48.764;9.174;2022-08-05T10:26:26;33.20;44.70
674;DHT22;319;48.764;9.174;2022-08-05T10:28:53;33.20;44.70
674;DHT22;319;48.764;9.174;2022-08-05T10:31:19;33.30;44.50
674;DHT22;319;48.764;9.174;2022-08-05T10:33:46;33.30;44.10
674;DHT22;319;48.764;9.174;2022-08-05T10:36:15;33.40;44.10
674;DHT22;319;48.764;9.174;2022-08-05T10:38:46;33.50;43.60
674;DHT22;319;48.764;9.174;2022-08-05T10:41:18;33.50;43.80
674;DHT22;319;48.764;9.174;2022-08-05T10:43:53;33.50;44.00
674;DHT22;319;48.764;9.174;2022-08-05T10:46:22;33.50;43.50
674;DHT22;319;48.764;9.174;2022-08-05T10:48:53;33.60;43.90
674;DHT22;319;48.764;9.174;2022-08-05T10:51:22;33.70;43.60
674;DHT22;319;48.764;9.174;2022-08-05T10:53:53;33.80;43.50
674;DHT22;319;48.764;9.174;2022-08-05T10:56:21;33.90;43.70
674;DHT22;319;48.764;9.174;2022-08-05T10:59:04;33.90;43.80
674;DHT22;319;48.764;9.174;2022-08-05T11:01:34;33.90;43.30
674;DHT22;319;48.764;9.174;2022-08-05T11:04:11;33.90;43.40
674;DHT22;319;48.764;9.174;2022-08-05T11:07:06;34.00;43.40
674;DHT22;319;48.764;9.174;2022-08-05T11:09:38;34.10;43.70
674;DHT22;319;48.764;9.174;2022-08-05T11:12:40;34.00;42.70
674;DHT22;319;48.764;9.174;2022-08-05T11:15:14;33.90;43.10
674;DHT22;319;48.764;9.174;2022-08-05T11:17:42;34.00;43.30
674;DHT22;319;48.764;9.174;2022-08-05T11:20:36;34.00;43.30
674;DHT22;319;48.764;9.174;2022-08-05T11:23:34;34.00;43.30
674;DHT22;319;48.764;9.174;2022-08-05T11:26:06;34.10;43.10
674;DHT22;319;48.764;9.174;2022-08-05T11:28:41;34.20;42.70
674;DHT22;319;48.764;9.174;2022-08-05T11:31:37;34.10;42.90
674;DHT22;319;48.764;9.174;2022-08-05T11:34:06;34.00;42.90
674;DHT22;319;48.764;9.174;2022-08-05T11:36:50;34.00;43.00
674;DHT22;319;48.764;9.174;2022-08-05T11:39:47;34.00;42.90
674;DHT22;319;48.764;9.174;2022-08-05T11:42:15;34.00;42.70
674;DHT22;319;48.764;9.174;2022-08-05T11:44:43;34.10;43.20
674;DHT22;319;48.764;9.174;2022-08-05T11:47:12;34.20;42.40
674;DHT22;319;48.764;9.174;2022-08-05T11:49:38;34.10;42.50
674;DHT22;319;48.764;9.174;2022-08-05T11:52:06;34.20;42.70
674;DHT22;319;48.764;9.174;2022-08-05T11:54:34;34.20;42.80
674;DHT22;319;48.764;9.174;2022-08-05T11:57:04;34.30;43.00
674;DHT22;319;48.764;9.174;2022-08-05T11:59:31;34.60;42.60
674;DHT22;319;48.764;9.174;2022-08-05T12:02:00;34.70;42.60
674;DHT22;319;48.764;9.174;2022-08-05T12:04:36;34.90;42.10
674;DHT22;319;48.764;9.174;2022-08-05T12:07:03;35.00;41.70
674;DHT22;319;48.764;9.174;2022-08-05T12:09:35;35.10;41.50
674;DHT22;319;48.764;9.174;2022-08-05T12:12:03;35.10;41.50
674;DHT22;319;48.764;9.174;2022-08-05T12:14:36;35.10;41.60
674;DHT22;319;48.764;9.174;2022-08-05T12:17:06;35.10;42.00
674;DHT22;319;48.764;9.174;2022-08-05T12:19:43;34.90;42.00
674;DHT22;319;48.764;9.174;2022-08-05T12:22:10;34.60;42.60
674;DHT22;319;48.764;9.174;2022-08-05T12:24:41;34.40;43.20
674;DHT22;319;48.764;9.174;2022-08-05T12:27:08;34.10;43.90
674;DHT22;319;48.764;9.174;2022-08-05T12:29:35;34.10;44.00
674;DHT22;319;48.764;9.174;2022-08-05T12:32:04;34.10;44.10
674;DHT22;319;48.764;9.174;2022-08-05T12:34:33;34.10;44.20
674;DHT22;319;48.764;9.174;2022-08-05T12:37:05;33.90;44.00
674;DHT22;319;48.764;9.174;2022-08-05T12:39:36;33.80;44.30
674;DHT22;319;48.764;9.174;2022-08-05T12:42:08;33.70;44.60
674;DHT22;319;48.764;9.174;2022-08-05T12:44:35;33.60;44.70
674;DHT22;319;48.764;9.174;2022-08-05T12:47:03;33.50;44.80
674;DHT22;319;48.764;9.174;2022-08-05T12:49:42;33.50;45.20
674;DHT22;319;48.764;9.174;2022-08-05T12:52:15;33.70;45.10
674;DHT22;319;48.764;9.174;2022-08-05T12:54:44;33.70;45.10
674;DHT22;319;48.764;9.174;2022-08-05T12:57:12;33.90;44.90
674;DHT22;319;48.764;9.174;2022-08-05T12:59:43;33.90;44.70
674;DHT22;319;48.764;9.174;2022-08-05T13:02:11;34.00;44.80
674;DHT22;319;48.764;9.174;2022-08-05T13:04:39;34.10;44.80
674;DHT22;319;48.764;9.174;2022-08-05T13:07:08;34.20;44.50
674;DHT22;319;48.764;9.174;2022-08-05T13:09:39;33.90;44.60
674;DHT22;319;48.764;9.174;2022-08-05T13:12:07;34.10;45.00
674;DHT22;319;48.764;9.174;2022-08-05T13:14:36;33.90;44.70
674;DHT22;319;48.764;9.174;2022-08-05T13:17:07;34.00;45.00
674;DHT22;319;48.764;9.174;2022-08-05T13:19:36;34.10;44.50
674;DHT22;319;48.764;9.174;2022-08-05T13:22:03;34.20;44.40
674;DHT22;319;48.764;9.174;2022-08-05T13:24:29;34.20;44.10
674;DHT22;319;48.764;9.174;2022-08-05T13:26:58;34.10;44.30
674;DHT22;319;48.764;9.174;2022-08-05T13:29:24;34.10;44.70
674;DHT22;319;48.764;9.174;2022-08-05T13:31:51;34.30;44.70
674;DHT22;319;48.764;9.174;2022-08-05T13:34:18;34.30;44.30
674;DHT22;319;48.764;9.174;2022-08-05T13:36:44;34.30;43.90
674;DHT22;319;48.764;9.174;2022-08-05T13:39:11;34.30;43.90
674;DHT22;319;48.764;9.174;2022-08-05T13:41:38;34.30;43.90
674;DHT22;319;48.764;9.174;2022-08-05T13:44:07;34.20;43.70
674;DHT22;319;48.764;9.174;2022-08-05T13:46:33;34.20;43.60
674;DHT22;319;48.764;9.174;2022-08-05T13:49:00;34.10;44.10
674;DHT22;319;48.764;9.174;2022-08-05T13:51:29;34.00;44.30
674;DHT22;319;48.764;9.174;2022-08-05T13:53:57;34.20;44.40
674;DHT22;319;48.764;9.174;2022-08-05T13:56:24;34.30;44.30
674;DHT22;319;48.764;9.174;2022-08-05T13:58:51;34.30;43.90
674;DHT22;319;48.764;9.174;2022-08-05T14:01:19;34.30;43.80
674;DHT22;319;48.764;9.174;2022-08-05T14:03:46;34.30;43.80
674;DHT22;319;48.764;9.174;2022-08-05T14:06:30;34.30;44.00
674;DHT22;319;48.764;9.174;2022-08-05T14:08:57;34.30;44.00
674;DHT22;319;48.764;9.174;2022-08-05T14:11:25;34.20;44.00
674;DHT22;319;48.764;9.174;2022-08-05T14:13:52;33.80;44.00
674;DHT22;319;48.764;9.174;2022-08-05T14:16:21;33.80;44.60
674;DHT22;319;48.764;9.174;2022-08-05T14:18:48;33.80;44.40
674;DHT22;319;48.764;9.174;2022-08-05T14:21:15;33.90;44.40
674;DHT22;319;48.764;9.174;2022-08-05T14:23:42;34.00;44.30
674;DHT22;319;48.764;9.174;2022-08-05T14:26:09;34.10;44.00
674;DHT22;319;48.764;9.174;2022-08-05T14:28:36;34.10;44.20
674;DHT22;319;48.764;9.174;2022-08-05T14:31:03;34.00;44.00
674;DHT22;319;48.764;9.174;2022-08-05T14:33:32;33.90;43.90
674;DHT22;319;48.764;9.174;2022-08-05T14:35:59;33.90;44.30
674;DHT22;319;48.764;9.174;2022-08-05T14:38:27;33.50;44.60
674;DHT22;319;48.764;9.174;2022-08-05T14:40:55;33.50;45.10
674;DHT22;319;48.764;9.174;2022-08-05T14:43:21;33.20;45.60
674;DHT22;319;48.764;9.174;2022-08-05T14:45:48;33.00;46.20
674;DHT22;319;48.764;9.174;2022-08-05T14:48:15;32.80;46.80
674;DHT22;319;48.764;9.174;2022-08-05T14:50:43;32.60;47.00
674;DHT22;319;48.764;9.174;2022-08-05T14:53:10;32.30;47.80
674;DHT22;319;48.764;9.174;2022-08-05T14:55:37;32.10;48.00
674;DHT22;319;48.764;9.174;2022-08-05T14:58:04;32.00;48.50
674;DHT22;319;48.764;9.174;2022-08-05T15:00:31;31.90;48.90
674;DHT22;319;48.764;9.174;2022-08-05T15:02:58;31.80;49.30
674;DHT22;319;48.764;9.174;2022-08-05T15:05:25;31.60;50.30
674;DHT22;319;48.764;9.174;2022-08-05T15:07:53;31.50;50.80
674;DHT22;319;48.764;9.174;2022-08-05T15:10:20;31.40;51.10
674;DHT22;319;48.764;9.174;2022-08-05T15:12:47;31.30;52.70
674;DHT22;319;48.764;9.174;2022-08-05T15:15:15;31.10;53.20
674;DHT22;319;48.764;9.174;2022-08-05T15:17:42;30.90;58.20
674;DHT22;319;48.764;9.174;2022-08-05T15:20:10;30.20;71.70
674;DHT22;319;48.764;9.174;2022-08-05T15:22:37;29.50;80.40
674;DHT22;319;48.764;9.174;2022-08-05T15:25:06;28.80;93.00
674;DHT22;319;48.764;9.174;2022-08-05T15:27:33;28.30;94.20
674;DHT22;319;48.764;9.174;2022-08-05T15:30:00;27.80;95.10
674;DHT22;319;48.764;9.174;2022-08-05T15:32:27;27.40;97.00
674;DHT22;319;48.764;9.174;2022-08-05T15:34:54;27.10;97.20
674;DHT22;319;48.764;9.174;2022-08-05T15:37:20;27.00;98.10
674;DHT22;319;48.764;9.174;2022-08-05T15:39:47;26.90;97.60
674;DHT22;319;48.764;9.174;2022-08-05T15:42:15;27.10;98.30
674;DHT22;319;48.764;9.174;2022-08-05T15:44:42;27.20;98.50
674;DHT22;319;48.764;9.174;2022-08-05T15:47:09;27.20;96.60
674;DHT22;319;48.764;9.174;2022-08-05T15:49:36;27.20;96.80
674;DHT22;319;48.764;9.174;2022-08-05T15:52:03;27.30;97.10
674;DHT22;319;48.764;9.174;2022-08-05T15:54:30;27.50;97.50
674;DHT22;319;48.764;9.174;2022-08-05T15:56:57;27.60;96.10
674;DHT22;319;48.764;9.174;2022-08-05T15:59:25;27.70;96.30
674;DHT22;319;48.764;9.174;2022-08-05T16:01:52;27.80;94.80
674;DHT22;319;48.764;9.174;2022-08-05T16:04:18;28.00;94.30
674;DHT22;319;48.764;9.174;2022-08-05T16:06:45;28.00;93.50
674;DHT22;319;48.764;9.174;2022-08-05T16:09:12;28.00;93.60
674;DHT22;319;48.764;9.174;2022-08-05T16:11:39;28.00;93.00
674;DHT22;319;48.764;9.174;2022-08-05T16:14:06;28.00;93.20
674;DHT22;319;48.764;9.174;2022-08-05T16:16:34;28.10;93.40
674;DHT22;319;48.764;9.174;2022-08-05T16:19:01;28.10;91.80
674;DHT22;319;48.764;9.174;2022-08-05T16:21:28;28.10;91.80
674;DHT22;319;48.764;9.174;2022-08-05T16:23:55;28.20;91.30
674;DHT22;319;48.764;9.174;2022-08-05T16:26:22;28.20;90.50
674;DHT22;319;48.764;9.174;2022-08-05T16:28:48;28.20;90.90
674;DHT22;319;48.764;9.174;2022-08-05T16:31:15;28.10;90.30
674;DHT22;319;48.764;9.174;2022-08-05T16:33:43;28.10;90.20
674;DHT22;319;48.764;9.174;2022-08-05T16:36:11;28.10;89.90
674;DHT22;319;48.764;9.174;2022-08-05T16:38:37;28.20;90.00
674;DHT22;319;48.764;9.174;2022-08-05T16:41:04;28.30;89.30
674;DHT22;319;48.764;9.174;2022-08-05T16:43:32;28.30;88.20
674;DHT22;319;48.764;9.174;2022-08-05T16:46:02;28.30;89.00
674;DHT22;319;48.764;9.174;2022-08-05T16:48:29;28.30;88.00